sensor_id;sensor_type;location;lat;lon;timestamp;temperature;humidity
61641;HTU21D;62201;49.966;8.342;2023-11-21T00:00:53;9.02;118.99
61641;HTU21D;62201;49.966;8.342;2023-11-21T00:03:18;9.05;118.99
61641;HTU21D;62201;49.966;8.342;2023-11-21T00:05:44;9.06;118.99
61641;HTU21D;62201;49.966;8.342;2023-11-21T00:08:09;9.06;118.99
61641;HTU21D;62201;49.966;8.342;2023-11-21T00:10:36;9.08;118.99
61641;HTU21D;62201;49.966;8.342;2023-11-21T00:13:03;9.10;118.99
61641;HTU21D;62201;49.966;8.342;2023-11-21T00:15:28;9.08;118.99
61641;HTU21D;62201;49.966;8.342;2023-11-21T00:17:54;9.09;118.99
61641;HTU21D;62201;49.966;8.342;2023-11-21T00:20:20;9.11;118.99
61641;HTU21D;62201;49.966;8.342;2023-11-21T00:22:45;9.11;118.99
61641;HTU21D;62201;49.966;8.342;2023-11-21T00:25:12;9.11;118.99
61641;HTU21D;62201;49.966;8.342;2023-11-21T00:27:39;9.09;118.99
61641;HTU21D;62201;49.966;8.342;2023-11-21T00:30:05;9.08;118.99
61641;HTU21D;62201;49.966;8.342;2023-11-21T00:32:31;9.09;118.99
61641;HTU21D;62201;49.966;8.342;2023-11-21T00:34:57;9.11;118.99
61641;HTU21D;62201;49.966;8.342;2023-11-21T00:37:22;9.10;118.99
61641;HTU21D;62201;49.966;8.342;2023-11-21T00:39:49;9.07;118.99
61641;HTU21D;62201;49.966;8.342;2023-11-21T00:42:14;9.05;118.99
61641;HTU21D;62201;49.966;8.342;2023-11-21T00:44:40;9.04;118.99
61641;HTU21D;62201;49.966;8.342;2023-11-21T00:47:05;9.08;118.99
61641;HTU21D;62201;49.966;8.342;2023-11-21T00:49:30;9.10;118.99
61641;HTU21D;62201;49.966;8.342;2023-11-21T00:51:56;9.09;118.99
61641;HTU21D;62201;49.966;8.342;2023-11-21T00:54:23;9.10;118.99
61641;HTU21D;62201;49.966;8.342;2023-11-21T00:56:48;9.14;118.99
61641;HTU21D;62201;49.966;8.342;2023-11-21T00:59:14;9.18;118.99
61641;HTU21D;62201;49.966;8.342;2023-11-21T01:01:39;9.17;118.99
61641;HTU21D;62201;49.966;8.342;2023-11-21T01:04:05;9.16;118.99
61641;HTU21D;62201;49.966;8.342;2023-11-21T01:06:32;9.18;118.99
61641;HTU21D;62201;49.966;8.342;2023-11-21T01:08:57;9.17;118.99
61641;HTU21D;62201;49.966;8.342;2023-11-21T01:11:22;9.18;118.99
61641;HTU21D;62201;49.966;8.342;2023-11-21T01:13:48;9.17;118.99
61641;HTU21D;62201;49.966;8.342;2023-11-21T01:16:13;9.20;118.99
61641;HTU21D;62201;49.966;8.342;2023-11-21T01:18:38;9.22;118.99
61641;HTU21D;62201;49.966;8.342;2023-11-21T01:21:04;9.23;118.99
61641;HTU21D;62201;49.966;8.342;2023-11-21T01:23:30;9.22;118.99
61641;HTU21D;62201;49.966;8.342;2023-11-21T01:25:56;9.21;118.99
61641;HTU21D;62201;49.966;8.342;2023-11-21T01:28:22;9.18;118.99
61641;HTU21D;62201;49.966;8.342;2023-11-21T01:30:48;9.17;118.99
61641;HTU21D;62201;49.966;8.342;2023-11-21T01:33:14;9.18;118.99
61641;HTU21D;62201;49.966;8.342;2023-11-21T01:35:43;9.19;118.99
61641;HTU21D;62201;49.966;8.342;2023-11-21T01:38:08;9.19;118.99
61641;HTU21D;62201;49.966;8.342;2023-11-21T01:40:35;9.20;118.99
61641;HTU21D;62201;49.966;8.342;2023-11-21T01:43:00;9.22;118.99
61641;HTU21D;62201;49.966;8.342;2023-11-21T01:45:28;9.25;118.99
61641;HTU21D;62201;49.966;8.342;2023-11-21T01:47:56;9.26;118.99
61641;HTU21D;62201;49.966;8.342;2023-11-21T01:50:21;9.27;118.99
61641;HTU21D;62201;49.966;8.342;2023-11-21T01:52:48;9.26;118.99
61641;HTU21D;62201;49.966;8.342;2023-11-21T01:55:15;9.25;118.99
61641;HTU21D;62201;49.966;8.342;2023-11-21T01:57:43;9.25;118.99
61641;HTU21D;62201;49.966;8.342;2023-11-21T02:00:10;9.26;118.99
61641;HTU21D;62201;49.966;8.342;2023-11-21T02:02:45;9.26;118.99
61641;HTU21D;62201;49.966;8.342;2023-11-21T02:05:12;9.23;118.99
61641;HTU21D;62201;49.966;8.342;2023-11-21T02:07:42;9.30;118.99
61641;HTU21D;62201;49.966;8.342;2023-11-21T02:10:13;9.33;118.99
61641;HTU21D;62201;49.966;8.342;2023-11-21T02:12:43;9.34;118.99
61641;HTU21D;62201;49.966;8.342;2023-11-21T02:15:13;9.35;118.99
61641;HTU21D;62201;49.966;8.342;2023-11-21T02:17:51;9.34;118.99
61641;HTU21D;62201;49.966;8.342;2023-11-21T02:20:19;9.36;118.99
61641;HTU21D;62201;49.966;8.342;2023-11-21T02:22:55;9.36;118.99
61641;HTU21D;62201;49.966;8.342;2023-11-21T02:25:27;9.35;118.99
61641;HTU21D;62201;49.966;8.342;2023-11-21T02:27:56;9.36;118.99
61641;HTU21D;62201;49.966;8.342;2023-11-21T02:30:22;9.36;118.99
61641;HTU21D;62201;49.966;8.342;2023-11-21T02:32:51;9.36;118.99
61641;HTU21D;62201;49.966;8.342;2023-11-21T02:35:20;9.36;118.99
61641;HTU21D;62201;49.966;8.342;2023-11-21T02:37:49;9.35;118.99
61641;HTU21D;62201;49.966;8.342;2023-11-21T02:40:15;9.37;118.99
61641;HTU21D;62201;49.966;8.342;2023-11-21T02:42:48;9.39;118.99
61641;HTU21D;62201;49.966;8.342;2023-11-21T02:45:16;9.38;118.99
61641;HTU21D;62201;49.966;8.342;2023-11-21T02:47:45;9.34;118.99
61641;HTU21D;62201;49.966;8.342;2023-11-21T02:50:10;9.34;118.99
61641;HTU21D;62201;49.966;8.342;2023-11-21T02:52:36;9.30;118.99
61641;HTU21D;62201;49.966;8.342;2023-11-21T02:55:02;9.29;118.99
61641;HTU21D;62201;49.966;8.342;2023-11-21T02:57:28;9.27;118.99
61641;HTU21D;62201;49.966;8.342;2023-11-21T02:59:54;9.23;118.99
61641;HTU21D;62201;49.966;8.342;2023-11-21T03:02:19;9.22;118.99
61641;HTU21D;62201;49.966;8.342;2023-11-21T03:04:45;9.22;118.99
61641;HTU21D;62201;49.966;8.342;2023-11-21T03:07:10;9.22;118.99
61641;HTU21D;62201;49.966;8.342;2023-11-21T03:09:36;9.23;118.99
61641;HTU21D;62201;49.966;8.342;2023-11-21T03:12:01;9.25;118.99
61641;HTU21D;62201;49.966;8.342;2023-11-21T03:14:27;9.25;118.99
61641;HTU21D;62201;49.966;8.342;2023-11-21T03:16:52;9.25;118.99
61641;HTU21D;62201;49.966;8.342;2023-11-21T03:19:17;9.26;118.99
61641;HTU21D;62201;49.966;8.342;2023-11-21T03:21:43;9.26;118.99
61641;HTU21D;62201;49.966;8.342;2023-11-21T03:24:08;9.23;118.99
61641;HTU21D;62201;49.966;8.342;2023-11-21T03:26:34;9.24;118.99
61641;HTU21D;62201;49.966;8.342;2023-11-21T03:28:59;9.23;118.99
61641;HTU21D;62201;49.966;8.342;2023-11-21T03:31:25;9.24;118.99
61641;HTU21D;62201;49.966;8.342;2023-11-21T03:33:51;9.24;118.99
61641;HTU21D;62201;49.966;8.342;2023-11-21T03:36:19;9.22;118.99
61641;HTU21D;62201;49.966;8.342;2023-11-21T03:38:44;9.20;118.99
61641;HTU21D;62201;49.966;8.342;2023-11-21T03:41:09;9.20;118.99
61641;HTU21D;62201;49.966;8.342;2023-11-21T03:43:36;9.20;118.99
61641;HTU21D;62201;49.966;8.342;2023-11-21T03:46:01;9.21;118.99
61641;HTU21D;62201;49.966;8.342;2023-11-21T03:48:27;9.16;118.99
61641;HTU21D;62201;49.966;8.342;2023-11-21T03:50:52;9.17;118.99
61641;HTU21D;62201;49.966;8.342;2023-11-21T03:53:17;9.17;118.99
61641;HTU21D;62201;49.966;8.342;2023-11-21T03:55:43;9.12;118.99
61641;HTU21D;62201;49.966;8.342;2023-11-21T03:58:08;9.09;118.99
61641;HTU21D;62201;49.966;8.342;2023-11-21T04:00:33;9.04;118.99
61641;HTU21D;62201;49.966;8.342;2023-11-21T04:02:59;9.01;118.99
61641;HTU21D;62201;49.966;8.342;2023-11-21T04:05:24;8.97;118.99
61641;HTU21D;62201;49.966;8.342;2023-11-21T04:07:50;8.95;118.99
61641;HTU21D;62201;49.966;8.342;2023-11-21T04:10:19;8.94;118.99
61641;HTU21D;62201;49.966;8.342;2023-11-21T04:12:44;8.93;118.99
61641;HTU21D;62201;49.966;8.342;2023-11-21T04:15:10;8.93;118.99
61641;HTU21D;62201;49.966;8.342;2023-11-21T04:17:37;8.95;118.99
61641;HTU21D;62201;49.966;8.342;2023-11-21T04:20:04;8.97;118.99
61641;HTU21D;62201;49.966;8.342;2023-11-21T04:22:37;8.96;118.99
61641;HTU21D;62201;49.966;8.342;2023-11-21T04:25:07;8.97;118.99
61641;HTU21D;62201;49.966;8.342;2023-11-21T04:27:33;8.96;118.99
61641;HTU21D;62201;49.966;8.342;2023-11-21T04:29:59;8.97;118.99
61641;HTU21D;62201;49.966;8.342;2023-11-21T04:32:25;8.96;118.99
61641;HTU21D;62201;49.966;8.342;2023-11-21T04:34:50;8.95;118.99
61641;HTU21D;62201;49.966;8.342;2023-11-21T04:37:15;8.97;118.99
61641;HTU21D;62201;49.966;8.342;2023-11-21T04:39:41;8.96;118.99
61641;HTU21D;62201;49.966;8.342;2023-11-21T04:42:06;8.96;118.99
61641;HTU21D;62201;49.966;8.342;2023-11-21T04:44:31;8.95;118.99
61641;HTU21D;62201;49.966;8.342;2023-11-21T04:46:57;8.94;118.99
61641;HTU21D;62201;49.966;8.342;2023-11-21T04:49:22;8.93;118.99
61641;HTU21D;62201;49.966;8.342;2023-11-21T04:51:47;8.94;118.99
61641;HTU21D;62201;49.966;8.342;2023-11-21T04:54:13;8.95;118.99
61641;HTU21D;62201;49.966;8.342;2023-11-21T04:56:38;8.96;118.99
61641;HTU21D;62201;49.966;8.342;2023-11-21T04:59:03;9.01;118.99
61641;HTU21D;62201;49.966;8.342;2023-11-21T05:01:29;9.03;118.99
61641;HTU21D;62201;49.966;8.342;2023-11-21T05:03:55;9.05;118.99
61641;HTU21D;62201;49.966;8.342;2023-11-21T05:06:22;9.08;118.99
61641;HTU21D;62201;49.966;8.342;2023-11-21T05:08:49;9.08;118.99
61641;HTU21D;62201;49.966;8.342;2023-11-21T05:11:26;9.09;118.99
61641;HTU21D;62201;49.966;8.342;2023-11-21T05:13:51;9.10;118.99
61641;HTU21D;62201;49.966;8.342;2023-11-21T05:16:18;9.11;118.99
61641;HTU21D;62201;49.966;8.342;2023-11-21T05:18:44;9.12;118.99
61641;HTU21D;62201;49.966;8.342;2023-11-21T05:21:09;9.14;118.99
61641;HTU21D;62201;49.966;8.342;2023-11-21T05:23:35;9.14;118.99
61641;HTU21D;62201;49.966;8.342;2023-11-21T05:26:00;9.16;118.99
61641;HTU21D;62201;49.966;8.342;2023-11-21T05:28:25;9.17;118.99
61641;HTU21D;62201;49.966;8.342;2023-11-21T05:30:51;9.15;118.99
61641;HTU21D;62201;49.966;8.342;2023-11-21T05:33:16;9.17;118.99
61641;HTU21D;62201;49.966;8.342;2023-11-21T05:35:42;9.17;118.99
61641;HTU21D;62201;49.966;8.342;2023-11-21T05:38:07;9.18;118.99
61641;HTU21D;62201;49.966;8.342;2023-11-21T05:40:32;9.17;118.99
61641;HTU21D;62201;49.966;8.342;2023-11-21T05:42:58;9.17;118.99
61641;HTU21D;62201;49.966;8.342;2023-11-21T05:45:24;9.17;118.99
61641;HTU21D;62201;49.966;8.342;2023-11-21T05:47:49;9.19;118.99
61641;HTU21D;62201;49.966;8.342;2023-11-21T05:50:16;9.19;118.99
61641;HTU21D;62201;49.966;8.342;2023-11-21T05:52:44;9.20;118.99
61641;HTU21D;62201;49.966;8.342;2023-11-21T05:55:10;9.21;118.99
61641;HTU21D;62201;49.966;8.342;2023-11-21T05:57:37;9.21;118.99
61641;HTU21D;62201;49.966;8.342;2023-11-21T06:00:07;9.21;118.99
61641;HTU21D;62201;49.966;8.342;2023-11-21T06:02:38;9.21;118.99
61641;HTU21D;62201;49.966;8.342;2023-11-21T06:05:04;9.23;118.99
61641;HTU21D;62201;49.966;8.342;2023-11-21T06:07:30;9.22;118.99
61641;HTU21D;62201;49.966;8.342;2023-11-21T06:09:55;9.22;118.99
61641;HTU21D;62201;49.966;8.342;2023-11-21T06:12:20;9.23;118.99
61641;HTU21D;62201;49.966;8.342;2023-11-21T06:14:46;9.20;118.99
61641;HTU21D;62201;49.966;8.342;2023-11-21T06:17:13;9.21;118.99
61641;HTU21D;62201;49.966;8.342;2023-11-21T06:19:38;9.18;118.99
61641;HTU21D;62201;49.966;8.342;2023-11-21T06:22:04;9.16;118.99
61641;HTU21D;62201;49.966;8.342;2023-11-21T06:24:29;9.15;118.99
61641;HTU21D;62201;49.966;8.342;2023-11-21T06:26:54;9.11;118.99
61641;HTU21D;62201;49.966;8.342;2023-11-21T06:29:20;9.12;118.99
61641;HTU21D;62201;49.966;8.342;2023-11-21T06:31:45;9.11;118.99
61641;HTU21D;62201;49.966;8.342;2023-11-21T06:34:11;9.11;118.99
61641;HTU21D;62201;49.966;8.342;2023-11-21T06:36:37;9.11;118.99
61641;HTU21D;62201;49.966;8.342;2023-11-21T06:39:02;9.12;118.99
61641;HTU21D;62201;49.966;8.342;2023-11-21T06:41:32;9.11;118.99
61641;HTU21D;62201;49.966;8.342;2023-11-21T06:43:57;9.14;118.99
61641;HTU21D;62201;49.966;8.342;2023-11-21T06:46:24;9.12;118.99
61641;HTU21D;62201;49.966;8.342;2023-11-21T06:48:49;9.12;118.99
61641;HTU21D;62201;49.966;8.342;2023-11-21T06:51:15;9.11;118.99
61641;HTU21D;62201;49.966;8.342;2023-11-21T06:53:41;9.15;118.99
61641;HTU21D;62201;49.966;8.342;2023-11-21T06:56:15;9.16;118.99
61641;HTU21D;62201;49.966;8.342;2023-11-21T06:58:41;9.17;118.99
61641;HTU21D;62201;49.966;8.342;2023-11-21T07:01:06;9.19;118.99
61641;HTU21D;62201;49.966;8.342;2023-11-21T07:03:32;9.21;118.99
61641;HTU21D;62201;49.966;8.342;2023-11-21T07:05:57;9.23;118.99
61641;HTU21D;62201;49.966;8.342;2023-11-21T07:08:23;9.25;118.99
61641;HTU21D;62201;49.966;8.342;2023-11-21T07:10:48;9.25;118.99
61641;HTU21D;62201;49.966;8.342;2023-11-21T07:13:14;9.27;118.99
61641;HTU21D;62201;49.966;8.342;2023-11-21T07:15:40;9.27;118.99
61641;HTU21D;62201;49.966;8.342;2023-11-21T07:18:05;9.29;118.99
61641;HTU21D;62201;49.966;8.342;2023-11-21T07:20:33;9.30;118.99
61641;HTU21D;62201;49.966;8.342;2023-11-21T07:22:58;9.30;118.99
61641;HTU21D;62201;49.966;8.342;2023-11-21T07:25:25;9.31;118.99
61641;HTU21D;62201;49.966;8.342;2023-11-21T07:27:51;9.34;118.99
61641;HTU21D;62201;49.966;8.342;2023-11-21T07:30:16;9.34;118.99
61641;HTU21D;62201;49.966;8.342;2023-11-21T07:32:42;9.38;118.99
61641;HTU21D;62201;49.966;8.342;2023-11-21T07:35:09;9.41;118.99
61641;HTU21D;62201;49.966;8.342;2023-11-21T07:37:34;9.45;118.99
61641;HTU21D;62201;49.966;8.342;2023-11-21T07:40:00;9.46;118.99
61641;HTU21D;62201;49.966;8.342;2023-11-21T07:42:25;9.47;118.99
61641;HTU21D;62201;49.966;8.342;2023-11-21T07:44:51;9.53;118.99
61641;HTU21D;62201;49.966;8.342;2023-11-21T07:47:17;9.56;118.99
61641;HTU21D;62201;49.966;8.342;2023-11-21T07:49:42;9.61;118.99
61641;HTU21D;62201;49.966;8.342;2023-11-21T07:52:09;9.64;118.99
61641;HTU21D;62201;49.966;8.342;2023-11-21T07:54:35;9.67;118.99
61641;HTU21D;62201;49.966;8.342;2023-11-21T07:57:01;9.75;118.99
61641;HTU21D;62201;49.966;8.342;2023-11-21T07:59:26;9.79;118.99
61641;HTU21D;62201;49.966;8.342;2023-11-21T08:01:52;9.79;118.99
61641;HTU21D;62201;49.966;8.342;2023-11-21T08:04:17;9.82;118.99
61641;HTU21D;62201;49.966;8.342;2023-11-21T08:06:43;9.86;118.99
61641;HTU21D;62201;49.966;8.342;2023-11-21T08:09:09;9.86;118.99
61641;HTU21D;62201;49.966;8.342;2023-11-21T08:11:35;9.93;118.99
61641;HTU21D;62201;49.966;8.342;2023-11-21T08:14:00;9.93;118.99
61641;HTU21D;62201;49.966;8.342;2023-11-21T08:16:26;9.95;118.99
61641;HTU21D;62201;49.966;8.342;2023-11-21T08:18:52;9.92;118.99
61641;HTU21D;62201;49.966;8.342;2023-11-21T08:21:18;9.93;118.99
61641;HTU21D;62201;49.966;8.342;2023-11-21T08:23:44;9.91;118.99
61641;HTU21D;62201;49.966;8.342;2023-11-21T08:26:09;9.86;118.99
61641;HTU21D;62201;49.966;8.342;2023-11-21T08:28:35;9.84;118.99
61641;HTU21D;62201;49.966;8.342;2023-11-21T08:31:01;9.80;118.99
61641;HTU21D;62201;49.966;8.342;2023-11-21T08:33:26;9.78;118.99
61641;HTU21D;62201;49.966;8.342;2023-11-21T08:35:52;9.78;118.99
61641;HTU21D;62201;49.966;8.342;2023-11-21T08:38:17;9.81;118.99
61641;HTU21D;62201;49.966;8.342;2023-11-21T08:40:43;9.84;118.99
61641;HTU21D;62201;49.966;8.342;2023-11-21T08:43:08;9.86;118.99
61641;HTU21D;62201;49.966;8.342;2023-11-21T08:45:34;9.86;118.99
61641;HTU21D;62201;49.966;8.342;2023-11-21T08:48:00;9.89;118.99
61641;HTU21D;62201;49.966;8.342;2023-11-21T08:50:26;9.93;118.99
61641;HTU21D;62201;49.966;8.342;2023-11-21T08:52:51;9.94;118.99
61641;HTU21D;62201;49.966;8.342;2023-11-21T08:55:16;9.94;118.99
61641;HTU21D;62201;49.966;8.342;2023-11-21T08:57:44;9.95;118.99
61641;HTU21D;62201;49.966;8.342;2023-11-21T09:00:10;9.95;118.99
61641;HTU21D;62201;49.966;8.342;2023-11-21T09:02:41;10.01;118.99
61641;HTU21D;62201;49.966;8.342;2023-11-21T09:05:11;9.99;118.99
61641;HTU21D;62201;49.966;8.342;2023-11-21T09:07:39;9.98;118.99
61641;HTU21D;62201;49.966;8.342;2023-11-21T09:10:06;10.04;118.99
61641;HTU21D;62201;49.966;8.342;2023-11-21T09:12:37;10.06;118.99
61641;HTU21D;62201;49.966;8.342;2023-11-21T09:15:04;10.09;118.99
61641;HTU21D;62201;49.966;8.342;2023-11-21T09:17:31;10.13;118.99
61641;HTU21D;62201;49.966;8.342;2023-11-21T09:20:08;10.16;118.99
61641;HTU21D;62201;49.966;8.342;2023-11-21T09:22:35;10.21;118.99
61641;HTU21D;62201;49.966;8.342;2023-11-21T09:25:00;10.21;118.99
61641;HTU21D;62201;49.966;8.342;2023-11-21T09:27:26;10.22;118.99
61641;HTU21D;62201;49.966;8.342;2023-11-21T09:29:52;10.27;118.99
61641;HTU21D;62201;49.966;8.342;2023-11-21T09:32:21;10.37;118.99
61641;HTU21D;62201;49.966;8.342;2023-11-21T09:34:49;10.39;118.99
61641;HTU21D;62201;49.966;8.342;2023-11-21T09:37:16;10.46;118.99
61641;HTU21D;62201;49.966;8.342;2023-11-21T09:39:41;10.52;118.99
61641;HTU21D;62201;49.966;8.342;2023-11-21T09:42:12;10.54;118.99
61641;HTU21D;62201;49.966;8.342;2023-11-21T09:44:46;10.58;118.99
61641;HTU21D;62201;49.966;8.342;2023-11-21T09:47:15;10.64;118.99
61641;HTU21D;62201;49.966;8.342;2023-11-21T09:49:46;10.71;118.99
61641;HTU21D;62201;49.966;8.342;2023-11-21T09:52:27;10.69;118.99
61641;HTU21D;62201;49.966;8.342;2023-11-21T09:54:53;10.74;118.99
61641;HTU21D;62201;49.966;8.342;2023-11-21T09:57:20;10.88;118.99
61641;HTU21D;62201;49.966;8.342;2023-11-21T09:59:50;10.88;118.99
61641;HTU21D;62201;49.966;8.342;2023-11-21T10:02:17;10.82;118.99
61641;HTU21D;62201;49.966;8.342;2023-11-21T10:04:44;10.85;118.99
61641;HTU21D;62201;49.966;8.342;2023-11-21T10:07:11;10.83;118.99
61641;HTU21D;62201;49.966;8.342;2023-11-21T10:09:37;10.79;118.99
61641;HTU21D;62201;49.966;8.342;2023-11-21T10:12:03;10.84;118.99
61641;HTU21D;62201;49.966;8.342;2023-11-21T10:14:34;10.89;118.99
61641;HTU21D;62201;49.966;8.342;2023-11-21T10:17:00;10.93;118.99
61641;HTU21D;62201;49.966;8.342;2023-11-21T10:19:25;10.95;118.99
61641;HTU21D;62201;49.966;8.342;2023-11-21T10:21:52;10.94;116.50
61641;HTU21D;62201;49.966;8.342;2023-11-21T10:24:19;10.98;118.99
61641;HTU21D;62201;49.966;8.342;2023-11-21T10:26:45;11.05;118.99
61641;HTU21D;62201;49.966;8.342;2023-11-21T10:29:14;11.15;118.99
61641;HTU21D;62201;49.966;8.342;2023-11-21T10:31:42;11.31;118.99
61641;HTU21D;62201;49.966;8.342;2023-11-21T10:34:17;11.36;116.84
61641;HTU21D;62201;49.966;8.342;2023-11-21T10:36:43;11.48;118.32
61641;HTU21D;62201;49.966;8.342;2023-11-21T10:39:09;11.57;114.47
61641;HTU21D;62201;49.966;8.342;2023-11-21T10:41:38;11.61;116.77
61641;HTU21D;62201;49.966;8.342;2023-11-21T10:44:03;11.75;116.19
61641;HTU21D;62201;49.966;8.342;2023-11-21T10:46:32;11.81;114.35
61641;HTU21D;62201;49.966;8.342;2023-11-21T10:48:57;11.74;109.22
61641;HTU21D;62201;49.966;8.342;2023-11-21T10:51:22;11.86;108.78
61641;HTU21D;62201;49.966;8.342;2023-11-21T10:53:54;12.03;108.72
61641;HTU21D;62201;49.966;8.342;2023-11-21T10:56:22;12.00;106.43
61641;HTU21D;62201;49.966;8.342;2023-11-21T10:58:49;12.03;107.61
61641;HTU21D;62201;49.966;8.342;2023-11-21T11:01:17;11.91;102.02
61641;HTU21D;62201;49.966;8.342;2023-11-21T11:03:43;12.02;101.16
61641;HTU21D;62201;49.966;8.342;2023-11-21T11:06:09;12.10;103.25
61641;HTU21D;62201;49.966;8.342;2023-11-21T11:08:37;12.10;101.64
61641;HTU21D;62201;49.966;8.342;2023-11-21T11:11:04;12.38;99.92
61641;HTU21D;62201;49.966;8.342;2023-11-21T11:13:30;12.70;100.47
61641;HTU21D;62201;49.966;8.342;2023-11-21T11:16:01;12.96;98.27
61641;HTU21D;62201;49.966;8.342;2023-11-21T11:18:32;13.11;92.30
61641;HTU21D;62201;49.966;8.342;2023-11-21T11:24:21;12.82;92.14
61641;HTU21D;62201;49.966;8.342;2023-11-21T11:27:11;12.95;93.78
61641;HTU21D;62201;49.966;8.342;2023-11-21T11:35:50;13.20;93.79
61641;HTU21D;62201;49.966;8.342;2023-11-21T11:38:21;13.19;91.50
61641;HTU21D;62201;49.966;8.342;2023-11-21T11:40:48;13.39;93.11
61641;HTU21D;62201;49.966;8.342;2023-11-21T11:43:27;13.43;93.17
61641;HTU21D;62201;49.966;8.342;2023-11-21T11:45:56;13.39;94.57
61641;HTU21D;62201;49.966;8.342;2023-11-21T11:48:24;13.23;94.99
61641;HTU21D;62201;49.966;8.342;2023-11-21T11:51:13;13.46;94.48
61641;HTU21D;62201;49.966;8.342;2023-11-21T11:53:47;13.50;90.51
61641;HTU21D;62201;49.966;8.342;2023-11-21T11:58:52;13.44;89.09
61641;HTU21D;62201;49.966;8.342;2023-11-21T12:01:21;13.32;92.48
61641;HTU21D;62201;49.966;8.342;2023-11-21T12:06:50;13.55;94.18
61641;HTU21D;62201;49.966;8.342;2023-11-21T12:09:22;13.36;90.42
61641;HTU21D;62201;49.966;8.342;2023-11-21T12:11:49;13.16;91.48
61641;HTU21D;62201;49.966;8.342;2023-11-21T12:14:15;13.12;91.87
61641;HTU21D;62201;49.966;8.342;2023-11-21T12:16:42;13.20;91.66
61641;HTU21D;62201;49.966;8.342;2023-11-21T12:19:09;13.08;93.41
61641;HTU21D;62201;49.966;8.342;2023-11-21T12:21:36;12.93;90.93
61641;HTU21D;62201;49.966;8.342;2023-11-21T12:24:01;12.73;93.46
61641;HTU21D;62201;49.966;8.342;2023-11-21T12:26:27;12.63;91.08
61641;HTU21D;62201;49.966;8.342;2023-11-21T12:28:53;12.59;92.59
61641;HTU21D;62201;49.966;8.342;2023-11-21T12:31:22;12.44;91.71
61641;HTU21D;62201;49.966;8.342;2023-11-21T12:33:47;12.37;93.08
61641;HTU21D;62201;49.966;8.342;2023-11-21T12:36:13;12.28;91.76
61641;HTU21D;62201;49.966;8.342;2023-11-21T12:38:39;12.23;91.94
61641;HTU21D;62201;49.966;8.342;2023-11-21T12:41:05;12.16;93.51
61641;HTU21D;62201;49.966;8.342;2023-11-21T12:43:31;12.04;91.63
61641;HTU21D;62201;49.966;8.342;2023-11-21T12:46:08;12.06;92.41
61641;HTU21D;62201;49.966;8.342;2023-11-21T12:48:37;11.93;91.78
61641;HTU21D;62201;49.966;8.342;2023-11-21T12:51:05;11.90;93.50
61641;HTU21D;62201;49.966;8.342;2023-11-21T12:53:32;11.79;93.17
61641;HTU21D;62201;49.966;8.342;2023-11-21T12:56:02;11.70;92.46
61641;HTU21D;62201;49.966;8.342;2023-11-21T12:58:28;11.71;93.56
61641;HTU21D;62201;49.966;8.342;2023-11-21T13:00:56;11.77;93.83
61641;HTU21D;62201;49.966;8.342;2023-11-21T13:03:22;11.78;93.69
61641;HTU21D;62201;49.966;8.342;2023-11-21T13:05:51;11.73;92.95
61641;HTU21D;62201;49.966;8.342;2023-11-21T13:08:19;11.70;92.62
61641;HTU21D;62201;49.966;8.342;2023-11-21T13:10:52;11.67;91.81
61641;HTU21D;62201;49.966;8.342;2023-11-21T13:13:19;11.62;91.90
61641;HTU21D;62201;49.966;8.342;2023-11-21T13:15:49;11.57;92.87
61641;HTU21D;62201;49.966;8.342;2023-11-21T13:18:15;11.58;92.26
61641;HTU21D;62201;49.966;8.342;2023-11-21T13:20:41;11.55;93.39
61641;HTU21D;62201;49.966;8.342;2023-11-21T13:23:09;11.58;92.77
61641;HTU21D;62201;49.966;8.342;2023-11-21T13:25:37;11.53;93.30
61641;HTU21D;62201;49.966;8.342;2023-11-21T13:28:04;11.52;94.14
61641;HTU21D;62201;49.966;8.342;2023-11-21T13:30:30;11.47;94.72
61641;HTU21D;62201;49.966;8.342;2023-11-21T13:33:03;11.43;95.83
61641;HTU21D;62201;49.966;8.342;2023-11-21T13:35:32;11.36;94.91
61641;HTU21D;62201;49.966;8.342;2023-11-21T13:38:10;11.33;94.92
61641;HTU21D;62201;49.966;8.342;2023-11-21T13:40:38;11.31;95.47
61641;HTU21D;62201;49.966;8.342;2023-11-21T13:43:15;11.29;95.78
61641;HTU21D;62201;49.966;8.342;2023-11-21T13:45:42;11.29;95.93
61641;HTU21D;62201;49.966;8.342;2023-11-21T13:48:09;11.33;96.33
61641;HTU21D;62201;49.966;8.342;2023-11-21T13:50:41;11.39;96.55
61641;HTU21D;62201;49.966;8.342;2023-11-21T13:53:17;11.51;96.22
61641;HTU21D;62201;49.966;8.342;2023-11-21T13:55:52;11.57;95.06
61641;HTU21D;62201;49.966;8.342;2023-11-21T13:58:23;11.67;94.16
61641;HTU21D;62201;49.966;8.342;2023-11-21T14:00:57;11.69;92.82
61641;HTU21D;62201;49.966;8.342;2023-11-21T14:03:23;11.89;94.99
61641;HTU21D;62201;49.966;8.342;2023-11-21T14:05:58;11.92;91.88
61641;HTU21D;62201;49.966;8.342;2023-11-21T14:08:26;11.90;92.34
61641;HTU21D;62201;49.966;8.342;2023-11-21T14:10:54;12.01;93.20
61641;HTU21D;62201;49.966;8.342;2023-11-21T14:13:25;12.06;91.92
61641;HTU21D;62201;49.966;8.342;2023-11-21T14:15:51;11.99;89.92
61641;HTU21D;62201;49.966;8.342;2023-11-21T14:18:25;11.97;91.07
61641;HTU21D;62201;49.966;8.342;2023-11-21T14:21:04;12.00;91.50
61641;HTU21D;62201;49.966;8.342;2023-11-21T14:23:31;12.01;90.99
61641;HTU21D;62201;49.966;8.342;2023-11-21T14:25:56;11.98;90.57
61641;HTU21D;62201;49.966;8.342;2023-11-21T14:28:22;11.98;91.29
61641;HTU21D;62201;49.966;8.342;2023-11-21T14:30:48;11.89;90.73
61641;HTU21D;62201;49.966;8.342;2023-11-21T14:33:13;11.82;91.56
61641;HTU21D;62201;49.966;8.342;2023-11-21T14:35:38;11.75;91.24
61641;HTU21D;62201;49.966;8.342;2023-11-21T14:38:04;11.72;91.87
61641;HTU21D;62201;49.966;8.342;2023-11-21T14:40:33;11.67;92.11
61641;HTU21D;62201;49.966;8.342;2023-11-21T14:43:00;11.63;92.86
61641;HTU21D;62201;49.966;8.342;2023-11-21T14:45:26;11.60;92.94
61641;HTU21D;62201;49.966;8.342;2023-11-21T14:47:52;11.56;93.46
61641;HTU21D;62201;49.966;8.342;2023-11-21T14:50:30;11.54;94.23
61641;HTU21D;62201;49.966;8.342;2023-11-21T14:53:15;11.46;93.75
61641;HTU21D;62201;49.966;8.342;2023-11-21T14:55:40;11.40;93.29
61641;HTU21D;62201;49.966;8.342;2023-11-21T14:58:16;11.33;94.01
61641;HTU21D;62201;49.966;8.342;2023-11-21T15:00:51;11.28;94.53
61641;HTU21D;62201;49.966;8.342;2023-11-21T15:03:22;11.25;94.93
61641;HTU21D;62201;49.966;8.342;2023-11-21T15:05:56;11.15;95.20
61641;HTU21D;62201;49.966;8.342;2023-11-21T15:08:22;11.12;95.77
61641;HTU21D;62201;49.966;8.342;2023-11-21T15:10:53;11.08;96.29
61641;HTU21D;62201;49.966;8.342;2023-11-21T15:13:20;11.04;96.32
61641;HTU21D;62201;49.966;8.342;2023-11-21T15:15:47;11.01;96.07
61641;HTU21D;62201;49.966;8.342;2023-11-21T15:18:12;10.98;95.79
61641;HTU21D;62201;49.966;8.342;2023-11-21T15:20:40;10.96;96.65
61641;HTU21D;62201;49.966;8.342;2023-11-21T15:23:05;10.93;96.94
61641;HTU21D;62201;49.966;8.342;2023-11-21T15:25:31;10.92;97.34
61641;HTU21D;62201;49.966;8.342;2023-11-21T15:27:57;10.88;97.00
61641;HTU21D;62201;49.966;8.342;2023-11-21T15:30:22;10.88;97.84